Uvalde Research's Hourly Summary for Sunday, March 19, 2017
Hour Temp
(f)
RH
(%)
Solar Rad.
(MJ/m2)
Rainfall
(in)
Wind
(mph)
3/19/2017 12:00 AM 65 92 0 0 1.14
3/19/2017 1:00 AM 65 94 0 0 1.83
3/19/2017 2:00 AM 64 96 0 0 1.55
3/19/2017 3:00 AM 62 97 0 0 0.01
3/19/2017 4:00 AM 62 98 0 0 0.32
3/19/2017 5:00 AM 63 99 0 0 1.54
3/19/2017 6:00 AM 62 99 0 0 1.83
3/19/2017 7:00 AM 62 100 0.01 0 0.56
3/19/2017 8:00 AM 62 100 0.13 0 2.39
3/19/2017 9:00 AM 64 100 0.29 0 2.56
3/19/2017 10:00 AM 65 98 0.29 0 2.33
3/19/2017 11:00 AM 66 95 0.41 0 1.98
3/19/2017 12:00 PM 67 90 0.83 0 1.89
3/19/2017 1:00 PM 70 83 1.23 0 2.4
3/19/2017 2:00 PM 72 77 2.09 0 2.48
3/19/2017 3:00 PM 75 68 2.47 0 2.62
3/19/2017 4:00 PM 78 63 1.99 0 2.33
3/19/2017 5:00 PM 80 57 1.37 0 1.45
3/19/2017 6:00 PM 81 56 0.65 0 1.69
3/19/2017 7:00 PM 79 59 0.09 0 0.66
3/19/2017 8:00 PM 74 64 0 0 1.69
3/19/2017 9:00 PM 71 71 0 0 2.28
3/19/2017 10:00 PM 69 76 0 0 1.45
3/19/2017 11:00 PM 66 83 0 0 1.75
Data Summary 68 83 11.85 0.00 1.70